sensor_id;sensor_type;location;lat;lon;timestamp;P1;durP1;ratioP1;P2;durP2;ratioP2
43771;SDS011;59066;54.782;32.024;2023-07-13T00:02:23;3.10;;;1.92;;
43771;SDS011;59066;54.782;32.024;2023-07-13T00:04:51;3.08;;;1.83;;
43771;SDS011;59066;54.782;32.024;2023-07-13T00:07:19;4.28;;;2.00;;
43771;SDS011;59066;54.782;32.024;2023-07-13T00:09:48;4.88;;;1.70;;
43771;SDS011;59066;54.782;32.024;2023-07-13T00:12:23;4.18;;;1.73;;
43771;SDS011;59066;54.782;32.024;2023-07-13T00:14:53;2.40;;;1.60;;
43771;SDS011;59066;54.782;32.024;2023-07-13T00:17:20;4.38;;;1.80;;
43771;SDS011;59066;54.782;32.024;2023-07-13T00:19:48;5.30;;;1.73;;
43771;SDS011;59066;54.782;32.024;2023-07-13T00:22:15;3.00;;;1.73;;
43771;SDS011;59066;54.782;32.024;2023-07-13T00:24:44;4.10;;;1.55;;
43771;SDS011;59066;54.782;32.024;2023-07-13T00:27:14;6.60;;;2.20;;
43771;SDS011;59066;54.782;32.024;2023-07-13T00:29:42;3.25;;;2.00;;
43771;SDS011;59066;54.782;32.024;2023-07-13T00:32:10;2.53;;;1.80;;
43771;SDS011;59066;54.782;32.024;2023-07-13T00:34:38;4.03;;;1.88;;
43771;SDS011;59066;54.782;32.024;2023-07-13T00:37:06;4.05;;;2.00;;
43771;SDS011;59066;54.782;32.024;2023-07-13T00:39:34;2.70;;;1.55;;
43771;SDS011;59066;54.782;32.024;2023-07-13T00:42:03;2.80;;;1.77;;
43771;SDS011;59066;54.782;32.024;2023-07-13T00:44:31;2.33;;;1.83;;
43771;SDS011;59066;54.782;32.024;2023-07-13T00:46:58;2.72;;;1.75;;
43771;SDS011;59066;54.782;32.024;2023-07-13T00:49:27;2.33;;;2.10;;
43771;SDS011;59066;54.782;32.024;2023-07-13T00:52:02;4.25;;;2.00;;
43771;SDS011;59066;54.782;32.024;2023-07-13T00:54:37;5.03;;;2.03;;
43771;SDS011;59066;54.782;32.024;2023-07-13T00:57:09;3.58;;;2.00;;
43771;SDS011;59066;54.782;32.024;2023-07-13T00:59:42;2.60;;;1.83;;
43771;SDS011;59066;54.782;32.024;2023-07-13T01:02:14;3.75;;;2.20;;
43771;SDS011;59066;54.782;32.024;2023-07-13T01:04:43;5.85;;;2.05;;
43771;SDS011;59066;54.782;32.024;2023-07-13T01:07:11;3.05;;;2.03;;
43771;SDS011;59066;54.782;32.024;2023-07-13T01:09:39;5.07;;;2.10;;
43771;SDS011;59066;54.782;32.024;2023-07-13T01:12:07;3.10;;;2.22;;
43771;SDS011;59066;54.782;32.024;2023-07-13T01:14:35;4.15;;;2.10;;
43771;SDS011;59066;54.782;32.024;2023-07-13T01:17:03;4.43;;;2.30;;
43771;SDS011;59066;54.782;32.024;2023-07-13T01:19:42;5.38;;;3.72;;
43771;SDS011;59066;54.782;32.024;2023-07-13T01:22:16;4.47;;;2.30;;
43771;SDS011;59066;54.782;32.024;2023-07-13T01:24:46;2.75;;;2.10;;
43771;SDS011;59066;54.782;32.024;2023-07-13T01:27:16;3.67;;;2.20;;
43771;SDS011;59066;54.782;32.024;2023-07-13T01:29:47;3.38;;;2.50;;
43771;SDS011;59066;54.782;32.024;2023-07-13T01:32:19;4.53;;;2.17;;
43771;SDS011;59066;54.782;32.024;2023-07-13T01:34:54;5.50;;;2.30;;
43771;SDS011;59066;54.782;32.024;2023-07-13T01:37:23;6.35;;;2.17;;
43771;SDS011;59066;54.782;32.024;2023-07-13T01:39:51;3.55;;;1.77;;
43771;SDS011;59066;54.782;32.024;2023-07-13T01:42:18;4.72;;;2.30;;
43771;SDS011;59066;54.782;32.024;2023-07-13T01:44:47;4.13;;;2.08;;
43771;SDS011;59066;54.782;32.024;2023-07-13T01:47:14;3.50;;;1.75;;
43771;SDS011;59066;54.782;32.024;2023-07-13T01:49:42;6.82;;;2.00;;
43771;SDS011;59066;54.782;32.024;2023-07-13T01:52:09;3.00;;;1.85;;
43771;SDS011;59066;54.782;32.024;2023-07-13T01:54:37;3.80;;;2.53;;
43771;SDS011;59066;54.782;32.024;2023-07-13T01:57:04;2.95;;;1.88;;
43771;SDS011;59066;54.782;32.024;2023-07-13T01:59:32;8.13;;;2.35;;
43771;SDS011;59066;54.782;32.024;2023-07-13T02:02:00;4.13;;;2.20;;
43771;SDS011;59066;54.782;32.024;2023-07-13T02:04:27;2.65;;;2.15;;
43771;SDS011;59066;54.782;32.024;2023-07-13T02:06:55;4.22;;;2.10;;
43771;SDS011;59066;54.782;32.024;2023-07-13T02:09:22;4.72;;;2.45;;
43771;SDS011;59066;54.782;32.024;2023-07-13T02:11:50;3.65;;;2.20;;
43771;SDS011;59066;54.782;32.024;2023-07-13T02:14:17;2.95;;;2.08;;
43771;SDS011;59066;54.782;32.024;2023-07-13T02:16:45;3.38;;;2.30;;
43771;SDS011;59066;54.782;32.024;2023-07-13T02:19:13;3.95;;;2.30;;
43771;SDS011;59066;54.782;32.024;2023-07-13T02:21:40;3.70;;;2.40;;
43771;SDS011;59066;54.782;32.024;2023-07-13T02:24:08;2.22;;;1.85;;
43771;SDS011;59066;54.782;32.024;2023-07-13T02:26:35;6.45;;;2.08;;
43771;SDS011;59066;54.782;32.024;2023-07-13T02:29:03;4.45;;;1.98;;
43771;SDS011;59066;54.782;32.024;2023-07-13T02:31:30;4.60;;;1.98;;
43771;SDS011;59066;54.782;32.024;2023-07-13T02:33:58;3.33;;;2.50;;
43771;SDS011;59066;54.782;32.024;2023-07-13T02:36:25;2.40;;;1.70;;
43771;SDS011;59066;54.782;32.024;2023-07-13T02:38:53;3.47;;;1.88;;
43771;SDS011;59066;54.782;32.024;2023-07-13T02:41:20;4.30;;;2.30;;
43771;SDS011;59066;54.782;32.024;2023-07-13T02:43:49;10.05;;;5.07;;
43771;SDS011;59066;54.782;32.024;2023-07-13T02:46:17;4.43;;;2.42;;
43771;SDS011;59066;54.782;32.024;2023-07-13T02:48:46;4.05;;;2.50;;
43771;SDS011;59066;54.782;32.024;2023-07-13T02:51:14;4.05;;;2.20;;
43771;SDS011;59066;54.782;32.024;2023-07-13T02:53:41;3.75;;;1.73;;
43771;SDS011;59066;54.782;32.024;2023-07-13T02:56:09;2.53;;;1.80;;
43771;SDS011;59066;54.782;32.024;2023-07-13T02:58:38;4.90;;;2.80;;
43771;SDS011;59066;54.782;32.024;2023-07-13T03:01:06;3.20;;;1.77;;
43771;SDS011;59066;54.782;32.024;2023-07-13T03:03:35;6.68;;;2.20;;
43771;SDS011;59066;54.782;32.024;2023-07-13T03:06:03;2.83;;;1.98;;
43771;SDS011;59066;54.782;32.024;2023-07-13T03:08:40;3.08;;;2.15;;
43771;SDS011;59066;54.782;32.024;2023-07-13T03:11:10;4.78;;;1.80;;
43771;SDS011;59066;54.782;32.024;2023-07-13T03:13:41;2.95;;;1.95;;
43771;SDS011;59066;54.782;32.024;2023-07-13T03:16:10;5.88;;;2.00;;
43771;SDS011;59066;54.782;32.024;2023-07-13T03:18:41;2.70;;;1.85;;
43771;SDS011;59066;54.782;32.024;2023-07-13T03:21:11;4.40;;;1.98;;
43771;SDS011;59066;54.782;32.024;2023-07-13T03:23:39;5.32;;;1.88;;
43771;SDS011;59066;54.782;32.024;2023-07-13T03:26:18;4.03;;;2.08;;
43771;SDS011;59066;54.782;32.024;2023-07-13T03:28:47;4.47;;;2.20;;
43771;SDS011;59066;54.782;32.024;2023-07-13T03:31:21;6.20;;;2.28;;
43771;SDS011;59066;54.782;32.024;2023-07-13T03:33:52;3.38;;;2.08;;
43771;SDS011;59066;54.782;32.024;2023-07-13T03:36:20;4.97;;;2.08;;
43771;SDS011;59066;54.782;32.024;2023-07-13T03:38:57;3.15;;;2.33;;
43771;SDS011;59066;54.782;32.024;2023-07-13T03:41:34;3.88;;;1.98;;
43771;SDS011;59066;54.782;32.024;2023-07-13T03:44:02;3.45;;;2.00;;
43771;SDS011;59066;54.782;32.024;2023-07-13T03:46:30;4.05;;;2.13;;
43771;SDS011;59066;54.782;32.024;2023-07-13T03:48:57;3.70;;;2.30;;
43771;SDS011;59066;54.782;32.024;2023-07-13T03:51:28;4.75;;;2.10;;
43771;SDS011;59066;54.782;32.024;2023-07-13T03:53:56;5.13;;;2.20;;
43771;SDS011;59066;54.782;32.024;2023-07-13T03:56:24;3.75;;;2.13;;
43771;SDS011;59066;54.782;32.024;2023-07-13T03:58:51;2.80;;;2.10;;
43771;SDS011;59066;54.782;32.024;2023-07-13T04:01:21;4.63;;;2.45;;
43771;SDS011;59066;54.782;32.024;2023-07-13T04:03:49;19.60;;;12.30;;
43771;SDS011;59066;54.782;32.024;2023-07-13T04:06:25;8.82;;;4.50;;
43771;SDS011;59066;54.782;32.024;2023-07-13T04:08:56;4.05;;;2.33;;
43771;SDS011;59066;54.782;32.024;2023-07-13T04:11:26;5.22;;;2.50;;
43771;SDS011;59066;54.782;32.024;2023-07-13T04:13:55;6.75;;;2.90;;
43771;SDS011;59066;54.782;32.024;2023-07-13T04:16:23;6.13;;;2.80;;
43771;SDS011;59066;54.782;32.024;2023-07-13T04:18:52;6.30;;;2.80;;
43771;SDS011;59066;54.782;32.024;2023-07-13T04:21:26;8.00;;;2.60;;
43771;SDS011;59066;54.782;32.024;2023-07-13T04:23:55;6.95;;;3.08;;
43771;SDS011;59066;54.782;32.024;2023-07-13T04:26:23;5.68;;;2.50;;
43771;SDS011;59066;54.782;32.024;2023-07-13T04:28:51;7.75;;;2.55;;
43771;SDS011;59066;54.782;32.024;2023-07-13T04:31:19;6.85;;;2.70;;
43771;SDS011;59066;54.782;32.024;2023-07-13T04:33:47;3.80;;;2.38;;
43771;SDS011;59066;54.782;32.024;2023-07-13T04:36:15;7.78;;;3.42;;
43771;SDS011;59066;54.782;32.024;2023-07-13T04:38:43;10.27;;;6.07;;
43771;SDS011;59066;54.782;32.024;2023-07-13T04:41:11;5.07;;;2.90;;
43771;SDS011;59066;54.782;32.024;2023-07-13T04:43:41;4.90;;;3.20;;
43771;SDS011;59066;54.782;32.024;2023-07-13T04:46:12;7.38;;;2.60;;
43771;SDS011;59066;54.782;32.024;2023-07-13T04:48:42;8.82;;;2.80;;
43771;SDS011;59066;54.782;32.024;2023-07-13T04:51:17;4.60;;;3.10;;
43771;SDS011;59066;54.782;32.024;2023-07-13T04:53:45;7.03;;;3.30;;
43771;SDS011;59066;54.782;32.024;2023-07-13T04:56:12;6.30;;;3.03;;
43771;SDS011;59066;54.782;32.024;2023-07-13T04:58:40;7.25;;;2.78;;
43771;SDS011;59066;54.782;32.024;2023-07-13T05:01:09;5.63;;;3.22;;
43771;SDS011;59066;54.782;32.024;2023-07-13T05:03:37;8.52;;;3.20;;
43771;SDS011;59066;54.782;32.024;2023-07-13T05:06:06;7.82;;;3.17;;
43771;SDS011;59066;54.782;32.024;2023-07-13T05:08:38;5.55;;;2.80;;
43771;SDS011;59066;54.782;32.024;2023-07-13T05:11:05;12.40;;;3.75;;
43771;SDS011;59066;54.782;32.024;2023-07-13T05:13:34;4.07;;;2.60;;
43771;SDS011;59066;54.782;32.024;2023-07-13T05:16:02;4.80;;;2.67;;
43771;SDS011;59066;54.782;32.024;2023-07-13T05:18:32;6.28;;;3.35;;
43771;SDS011;59066;54.782;32.024;2023-07-13T05:21:05;6.97;;;3.10;;
43771;SDS011;59066;54.782;32.024;2023-07-13T05:23:35;4.65;;;3.28;;
43771;SDS011;59066;54.782;32.024;2023-07-13T05:26:03;5.53;;;3.30;;
43771;SDS011;59066;54.782;32.024;2023-07-13T05:28:35;5.93;;;3.35;;
43771;SDS011;59066;54.782;32.024;2023-07-13T05:31:03;8.52;;;4.35;;
43771;SDS011;59066;54.782;32.024;2023-07-13T05:33:31;5.05;;;4.15;;
43771;SDS011;59066;54.782;32.024;2023-07-13T05:35:58;7.32;;;3.08;;
43771;SDS011;59066;54.782;32.024;2023-07-13T05:38:27;7.63;;;4.38;;
43771;SDS011;59066;54.782;32.024;2023-07-13T05:40:56;8.77;;;2.88;;
43771;SDS011;59066;54.782;32.024;2023-07-13T05:43:24;5.57;;;3.00;;
43771;SDS011;59066;54.782;32.024;2023-07-13T05:45:53;6.63;;;3.33;;
43771;SDS011;59066;54.782;32.024;2023-07-13T05:48:22;6.13;;;3.25;;
43771;SDS011;59066;54.782;32.024;2023-07-13T05:50:52;11.55;;;3.63;;
43771;SDS011;59066;54.782;32.024;2023-07-13T05:53:19;7.18;;;2.90;;
43771;SDS011;59066;54.782;32.024;2023-07-13T05:55:47;4.28;;;2.72;;
43771;SDS011;59066;54.782;32.024;2023-07-13T05:58:17;7.95;;;3.38;;
43771;SDS011;59066;54.782;32.024;2023-07-13T06:00:45;10.73;;;5.10;;
43771;SDS011;59066;54.782;32.024;2023-07-13T06:03:14;8.13;;;4.05;;
43771;SDS011;59066;54.782;32.024;2023-07-13T06:05:42;8.80;;;3.85;;
43771;SDS011;59066;54.782;32.024;2023-07-13T06:08:10;8.10;;;3.80;;
43771;SDS011;59066;54.782;32.024;2023-07-13T06:10:37;7.82;;;3.42;;
43771;SDS011;59066;54.782;32.024;2023-07-13T06:13:05;5.63;;;3.08;;
43771;SDS011;59066;54.782;32.024;2023-07-13T06:15:32;6.18;;;3.20;;
43771;SDS011;59066;54.782;32.024;2023-07-13T06:18:00;4.32;;;3.10;;
43771;SDS011;59066;54.782;32.024;2023-07-13T06:20:28;9.98;;;3.22;;
43771;SDS011;59066;54.782;32.024;2023-07-13T06:22:56;7.80;;;4.85;;
43771;SDS011;59066;54.782;32.024;2023-07-13T06:25:23;7.68;;;3.03;;
43771;SDS011;59066;54.782;32.024;2023-07-13T06:27:51;7.07;;;4.10;;
43771;SDS011;59066;54.782;32.024;2023-07-13T06:30:18;5.90;;;2.80;;
43771;SDS011;59066;54.782;32.024;2023-07-13T06:32:46;5.88;;;3.40;;
43771;SDS011;59066;54.782;32.024;2023-07-13T06:35:14;6.13;;;3.05;;
43771;SDS011;59066;54.782;32.024;2023-07-13T06:37:41;9.18;;;3.97;;
43771;SDS011;59066;54.782;32.024;2023-07-13T06:40:09;6.55;;;3.03;;
43771;SDS011;59066;54.782;32.024;2023-07-13T06:42:37;10.20;;;3.60;;
43771;SDS011;59066;54.782;32.024;2023-07-13T06:45:05;7.28;;;3.42;;
43771;SDS011;59066;54.782;32.024;2023-07-13T06:47:33;8.35;;;4.05;;
43771;SDS011;59066;54.782;32.024;2023-07-13T06:50:02;9.05;;;4.32;;
43771;SDS011;59066;54.782;32.024;2023-07-13T06:52:30;5.32;;;3.10;;
43771;SDS011;59066;54.782;32.024;2023-07-13T06:54:57;6.00;;;3.10;;
43771;SDS011;59066;54.782;32.024;2023-07-13T06:57:25;5.60;;;3.05;;
43771;SDS011;59066;54.782;32.024;2023-07-13T06:59:53;6.75;;;3.00;;
43771;SDS011;59066;54.782;32.024;2023-07-13T07:02:20;4.68;;;2.88;;
43771;SDS011;59066;54.782;32.024;2023-07-13T07:04:48;10.48;;;3.70;;
43771;SDS011;59066;54.782;32.024;2023-07-13T07:07:16;5.70;;;2.92;;
43771;SDS011;59066;54.782;32.024;2023-07-13T07:09:44;3.00;;;2.60;;
43771;SDS011;59066;54.782;32.024;2023-07-13T07:12:11;6.30;;;3.40;;
43771;SDS011;59066;54.782;32.024;2023-07-13T07:14:40;8.07;;;3.45;;
43771;SDS011;59066;54.782;32.024;2023-07-13T07:17:08;9.27;;;4.30;;
43771;SDS011;59066;54.782;32.024;2023-07-13T07:19:36;6.57;;;3.97;;
43771;SDS011;59066;54.782;32.024;2023-07-13T07:22:03;4.40;;;2.70;;
43771;SDS011;59066;54.782;32.024;2023-07-13T07:24:31;6.10;;;3.13;;
43771;SDS011;59066;54.782;32.024;2023-07-13T07:26:59;5.78;;;3.00;;
43771;SDS011;59066;54.782;32.024;2023-07-13T07:29:29;7.93;;;3.55;;
43771;SDS011;59066;54.782;32.024;2023-07-13T07:31:59;5.63;;;3.10;;
43771;SDS011;59066;54.782;32.024;2023-07-13T07:34:31;9.48;;;2.72;;
43771;SDS011;59066;54.782;32.024;2023-07-13T07:36:59;6.47;;;2.90;;
43771;SDS011;59066;54.782;32.024;2023-07-13T07:39:30;4.15;;;2.58;;
43771;SDS011;59066;54.782;32.024;2023-07-13T07:41:58;4.88;;;2.75;;
43771;SDS011;59066;54.782;32.024;2023-07-13T07:44:26;5.82;;;2.97;;
43771;SDS011;59066;54.782;32.024;2023-07-13T07:46:55;4.47;;;2.70;;
43771;SDS011;59066;54.782;32.024;2023-07-13T07:49:22;5.22;;;2.78;;
43771;SDS011;59066;54.782;32.024;2023-07-13T07:51:50;4.93;;;2.45;;
43771;SDS011;59066;54.782;32.024;2023-07-13T07:54:18;8.55;;;3.42;;
43771;SDS011;59066;54.782;32.024;2023-07-13T07:57:06;4.70;;;2.97;;
43771;SDS011;59066;54.782;32.024;2023-07-13T07:59:37;4.32;;;3.10;;
43771;SDS011;59066;54.782;32.024;2023-07-13T08:02:08;7.90;;;2.97;;
43771;SDS011;59066;54.782;32.024;2023-07-13T08:04:57;6.50;;;2.45;;
43771;SDS011;59066;54.782;32.024;2023-07-13T08:07:28;5.78;;;3.10;;
43771;SDS011;59066;54.782;32.024;2023-07-13T08:09:59;5.90;;;2.65;;
43771;SDS011;59066;54.782;32.024;2023-07-13T08:12:26;6.05;;;2.60;;
43771;SDS011;59066;54.782;32.024;2023-07-13T08:14:57;4.60;;;2.88;;
43771;SDS011;59066;54.782;32.024;2023-07-13T08:17:24;3.88;;;3.40;;
43771;SDS011;59066;54.782;32.024;2023-07-13T08:19:52;5.85;;;3.20;;
43771;SDS011;59066;54.782;32.024;2023-07-13T08:22:20;4.03;;;2.72;;
43771;SDS011;59066;54.782;32.024;2023-07-13T08:24:47;7.85;;;3.15;;
43771;SDS011;59066;54.782;32.024;2023-07-13T08:27:22;5.13;;;2.70;;
43771;SDS011;59066;54.782;32.024;2023-07-13T08:29:51;6.88;;;3.13;;
43771;SDS011;59066;54.782;32.024;2023-07-13T08:32:20;4.50;;;2.85;;
43771;SDS011;59066;54.782;32.024;2023-07-13T08:34:49;4.53;;;2.80;;
43771;SDS011;59066;54.782;32.024;2023-07-13T08:37:18;3.85;;;2.60;;
43771;SDS011;59066;54.782;32.024;2023-07-13T08:39:46;5.80;;;2.97;;
43771;SDS011;59066;54.782;32.024;2023-07-13T08:42:35;8.52;;;2.90;;
43771;SDS011;59066;54.782;32.024;2023-07-13T08:47:54;6.05;;;2.88;;
43771;SDS011;59066;54.782;32.024;2023-07-13T08:50:28;6.28;;;2.67;;
43771;SDS011;59066;54.782;32.024;2023-07-13T08:53:11;4.82;;;2.60;;
43771;SDS011;59066;54.782;32.024;2023-07-13T08:55:40;5.45;;;3.00;;
43771;SDS011;59066;54.782;32.024;2023-07-13T08:58:11;6.07;;;3.00;;
43771;SDS011;59066;54.782;32.024;2023-07-13T09:00:59;5.40;;;2.50;;
43771;SDS011;59066;54.782;32.024;2023-07-13T09:06:10;6.28;;;4.03;;
43771;SDS011;59066;54.782;32.024;2023-07-13T09:08:53;12.90;;;4.70;;
43771;SDS011;59066;54.782;32.024;2023-07-13T09:11:45;7.32;;;4.43;;
43771;SDS011;59066;54.782;32.024;2023-07-13T09:14:40;4.70;;;3.08;;
43771;SDS011;59066;54.782;32.024;2023-07-13T09:20:06;11.02;;;3.88;;
43771;SDS011;59066;54.782;32.024;2023-07-13T09:22:44;7.50;;;3.17;;
43771;SDS011;59066;54.782;32.024;2023-07-13T09:27:58;7.05;;;3.15;;
43771;SDS011;59066;54.782;32.024;2023-07-13T09:30:34;10.20;;;3.45;;
43771;SDS011;59066;54.782;32.024;2023-07-13T09:33:11;12.07;;;3.17;;
43771;SDS011;59066;54.782;32.024;2023-07-13T09:35:39;9.13;;;3.90;;
43771;SDS011;59066;54.782;32.024;2023-07-13T09:38:11;3.13;;;2.80;;
43771;SDS011;59066;54.782;32.024;2023-07-13T09:43:09;7.63;;;3.08;;
43771;SDS011;59066;54.782;32.024;2023-07-13T09:45:40;4.47;;;2.80;;
43771;SDS011;59066;54.782;32.024;2023-07-13T09:48:11;10.00;;;2.65;;
43771;SDS011;59066;54.782;32.024;2023-07-13T09:50:40;8.38;;;3.15;;
43771;SDS011;59066;54.782;32.024;2023-07-13T09:53:16;3.85;;;2.80;;
43771;SDS011;59066;54.782;32.024;2023-07-13T09:55:46;6.35;;;3.20;;
43771;SDS011;59066;54.782;32.024;2023-07-13T09:58:22;7.90;;;3.00;;
43771;SDS011;59066;54.782;32.024;2023-07-13T10:00:59;5.78;;;2.97;;
43771;SDS011;59066;54.782;32.024;2023-07-13T10:03:35;5.47;;;3.00;;
43771;SDS011;59066;54.782;32.024;2023-07-13T10:08:40;6.68;;;4.07;;
43771;SDS011;59066;54.782;32.024;2023-07-13T10:11:13;4.40;;;3.25;;
43771;SDS011;59066;54.782;32.024;2023-07-13T10:16:28;10.82;;;3.30;;
43771;SDS011;59066;54.782;32.024;2023-07-13T10:19:05;9.02;;;3.47;;
43771;SDS011;59066;54.782;32.024;2023-07-13T10:21:55;4.75;;;3.03;;
43771;SDS011;59066;54.782;32.024;2023-07-13T10:24:27;6.97;;;3.00;;
43771;SDS011;59066;54.782;32.024;2023-07-13T10:27:09;4.97;;;2.90;;
43771;SDS011;59066;54.782;32.024;2023-07-13T10:30:22;4.50;;;3.42;;
43771;SDS011;59066;54.782;32.024;2023-07-13T10:32:47;6.53;;;2.78;;
43771;SDS011;59066;54.782;32.024;2023-07-13T10:35:16;9.40;;;3.20;;
43771;SDS011;59066;54.782;32.024;2023-07-13T10:37:53;6.13;;;3.05;;
43771;SDS011;59066;54.782;32.024;2023-07-13T10:41:11;9.07;;;3.05;;
43771;SDS011;59066;54.782;32.024;2023-07-13T10:43:33;5.85;;;3.22;;
43771;SDS011;59066;54.782;32.024;2023-07-13T10:46:08;6.95;;;3.10;;
43771;SDS011;59066;54.782;32.024;2023-07-13T10:48:44;5.53;;;3.00;;
43771;SDS011;59066;54.782;32.024;2023-07-13T10:51:17;5.32;;;2.90;;
43771;SDS011;59066;54.782;32.024;2023-07-13T10:56:44;7.20;;;3.03;;
43771;SDS011;59066;54.782;32.024;2023-07-13T10:59:26;8.65;;;3.08;;
43771;SDS011;59066;54.782;32.024;2023-07-13T11:02:06;9.82;;;3.03;;
43771;SDS011;59066;54.782;32.024;2023-07-13T11:04:40;6.13;;;2.78;;
43771;SDS011;59066;54.782;32.024;2023-07-13T11:07:20;7.38;;;3.00;;
43771;SDS011;59066;54.782;32.024;2023-07-13T11:09:53;4.22;;;3.80;;
43771;SDS011;59066;54.782;32.024;2023-07-13T11:25:39;6.13;;;2.72;;
43771;SDS011;59066;54.782;32.024;2023-07-13T11:35:53;7.25;;;3.15;;
43771;SDS011;59066;54.782;32.024;2023-07-13T11:38:32;6.28;;;3.92;;
43771;SDS011;59066;54.782;32.024;2023-07-13T11:41:04;6.18;;;3.47;;
43771;SDS011;59066;54.782;32.024;2023-07-13T11:43:34;6.85;;;3.22;;
43771;SDS011;59066;54.782;32.024;2023-07-13T11:46:15;7.32;;;2.75;;
43771;SDS011;59066;54.782;32.024;2023-07-13T11:48:51;6.55;;;3.53;;
43771;SDS011;59066;54.782;32.024;2023-07-13T11:51:29;5.50;;;2.85;;
43771;SDS011;59066;54.782;32.024;2023-07-13T11:54:06;3.72;;;2.80;;
43771;SDS011;59066;54.782;32.024;2023-07-13T11:56:42;4.82;;;3.15;;
43771;SDS011;59066;54.782;32.024;2023-07-13T11:59:10;4.43;;;2.95;;
43771;SDS011;59066;54.782;32.024;2023-07-13T12:01:43;6.18;;;3.08;;
43771;SDS011;59066;54.782;32.024;2023-07-13T12:04:32;6.20;;;3.17;;
43771;SDS011;59066;54.782;32.024;2023-07-13T12:07:05;7.43;;;3.03;;
43771;SDS011;59066;54.782;32.024;2023-07-13T12:09:35;4.57;;;3.17;;
43771;SDS011;59066;54.782;32.024;2023-07-13T12:12:03;6.57;;;3.97;;
43771;SDS011;59066;54.782;32.024;2023-07-13T12:14:38;13.50;;;5.15;;
43771;SDS011;59066;54.782;32.024;2023-07-13T12:17:11;6.45;;;3.35;;
43771;SDS011;59066;54.782;32.024;2023-07-13T12:19:51;10.38;;;3.50;;
43771;SDS011;59066;54.782;32.024;2023-07-13T12:22:20;6.30;;;3.65;;
43771;SDS011;59066;54.782;32.024;2023-07-13T12:24:47;5.65;;;2.78;;
43771;SDS011;59066;54.782;32.024;2023-07-13T12:27:23;5.95;;;3.20;;
43771;SDS011;59066;54.782;32.024;2023-07-13T12:29:57;6.75;;;3.38;;
43771;SDS011;59066;54.782;32.024;2023-07-13T12:32:26;4.93;;;3.08;;
43771;SDS011;59066;54.782;32.024;2023-07-13T12:34:56;5.53;;;4.10;;
43771;SDS011;59066;54.782;32.024;2023-07-13T12:37:30;9.88;;;3.22;;
43771;SDS011;59066;54.782;32.024;2023-07-13T12:40:02;10.98;;;3.97;;
43771;SDS011;59066;54.782;32.024;2023-07-13T12:42:31;4.22;;;3.60;;
43771;SDS011;59066;54.782;32.024;2023-07-13T12:45:43;6.50;;;4.28;;
43771;SDS011;59066;54.782;32.024;2023-07-13T12:48:03;5.85;;;3.00;;
43771;SDS011;59066;54.782;32.024;2023-07-13T12:50:37;7.88;;;3.60;;
43771;SDS011;59066;54.782;32.024;2023-07-13T12:53:14;5.53;;;3.47;;
43771;SDS011;59066;54.782;32.024;2023-07-13T12:55:48;5.57;;;3.63;;
43771;SDS011;59066;54.782;32.024;2023-07-13T12:58:25;9.57;;;3.58;;
43771;SDS011;59066;54.782;32.024;2023-07-13T13:00:55;9.45;;;4.50;;
43771;SDS011;59066;54.782;32.024;2023-07-13T13:04:10;5.60;;;3.58;;
43771;SDS011;59066;54.782;32.024;2023-07-13T13:08:47;8.85;;;4.22;;
43771;SDS011;59066;54.782;32.024;2023-07-13T13:11:17;6.88;;;3.50;;
43771;SDS011;59066;54.782;32.024;2023-07-13T13:13:46;6.68;;;3.65;;
43771;SDS011;59066;54.782;32.024;2023-07-13T13:19:00;4.38;;;3.63;;
43771;SDS011;59066;54.782;32.024;2023-07-13T13:21:37;8.40;;;3.95;;
43771;SDS011;59066;54.782;32.024;2023-07-13T13:24:15;4.82;;;4.13;;
43771;SDS011;59066;54.782;32.024;2023-07-13T13:26:44;7.32;;;4.00;;
43771;SDS011;59066;54.782;32.024;2023-07-13T13:29:13;10.25;;;3.50;;
43771;SDS011;59066;54.782;32.024;2023-07-13T13:31:45;4.85;;;3.63;;
43771;SDS011;59066;54.782;32.024;2023-07-13T13:34:15;8.25;;;4.00;;
43771;SDS011;59066;54.782;32.024;2023-07-13T13:36:44;8.02;;;4.30;;
43771;SDS011;59066;54.782;32.024;2023-07-13T13:39:23;11.10;;;3.90;;
43771;SDS011;59066;54.782;32.024;2023-07-13T13:41:55;8.73;;;4.15;;
43771;SDS011;59066;54.782;32.024;2023-07-13T13:44:22;10.90;;;3.80;;
43771;SDS011;59066;54.782;32.024;2023-07-13T13:46:51;5.35;;;3.88;;
43771;SDS011;59066;54.782;32.024;2023-07-13T13:49:21;7.82;;;3.80;;
43771;SDS011;59066;54.782;32.024;2023-07-13T13:51:51;5.13;;;4.10;;
43771;SDS011;59066;54.782;32.024;2023-07-13T13:54:20;6.38;;;4.43;;
43771;SDS011;59066;54.782;32.024;2023-07-13T13:56:49;5.00;;;4.10;;
43771;SDS011;59066;54.782;32.024;2023-07-13T13:59:18;6.68;;;4.10;;
43771;SDS011;59066;54.782;32.024;2023-07-13T14:01:47;8.70;;;4.63;;
43771;SDS011;59066;54.782;32.024;2023-07-13T14:04:17;9.13;;;4.82;;
43771;SDS011;59066;54.782;32.024;2023-07-13T14:06:46;11.35;;;4.70;;
43771;SDS011;59066;54.782;32.024;2023-07-13T14:09:16;6.07;;;4.20;;
43771;SDS011;59066;54.782;32.024;2023-07-13T14:11:45;7.80;;;4.35;;
43771;SDS011;59066;54.782;32.024;2023-07-13T14:14:23;10.60;;;4.55;;
43771;SDS011;59066;54.782;32.024;2023-07-13T14:16:54;8.05;;;4.72;;
43771;SDS011;59066;54.782;32.024;2023-07-13T14:19:23;7.35;;;4.30;;
43771;SDS011;59066;54.782;32.024;2023-07-13T14:21:51;8.20;;;4.57;;
43771;SDS011;59066;54.782;32.024;2023-07-13T14:24:21;9.13;;;4.80;;
43771;SDS011;59066;54.782;32.024;2023-07-13T14:26:48;9.45;;;5.07;;
43771;SDS011;59066;54.782;32.024;2023-07-13T14:29:17;10.95;;;4.47;;
43771;SDS011;59066;54.782;32.024;2023-07-13T14:31:50;6.75;;;3.85;;
43771;SDS011;59066;54.782;32.024;2023-07-13T14:34:17;10.10;;;4.38;;
43771;SDS011;59066;54.782;32.024;2023-07-13T14:36:47;9.30;;;4.30;;
43771;SDS011;59066;54.782;32.024;2023-07-13T14:39:17;8.02;;;4.63;;
43771;SDS011;59066;54.782;32.024;2023-07-13T14:41:49;8.25;;;4.22;;
43771;SDS011;59066;54.782;32.024;2023-07-13T14:44:22;6.28;;;4.82;;
43771;SDS011;59066;54.782;32.024;2023-07-13T14:46:52;11.40;;;5.35;;
43771;SDS011;59066;54.782;32.024;2023-07-13T14:49:30;5.97;;;4.93;;
43771;SDS011;59066;54.782;32.024;2023-07-13T14:52:03;9.52;;;5.47;;
43771;SDS011;59066;54.782;32.024;2023-07-13T14:54:39;10.32;;;7.10;;
43771;SDS011;59066;54.782;32.024;2023-07-13T14:57:14;12.68;;;8.35;;
43771;SDS011;59066;54.782;32.024;2023-07-13T14:59:46;12.55;;;10.07;;
43771;SDS011;59066;54.782;32.024;2023-07-13T15:02:24;6.70;;;5.13;;
43771;SDS011;59066;54.782;32.024;2023-07-13T15:05:01;8.93;;;7.22;;
43771;SDS011;59066;54.782;32.024;2023-07-13T15:07:32;7.65;;;4.78;;
43771;SDS011;59066;54.782;32.024;2023-07-13T15:10:00;8.43;;;4.70;;
43771;SDS011;59066;54.782;32.024;2023-07-13T15:12:28;6.55;;;4.32;;
43771;SDS011;59066;54.782;32.024;2023-07-13T15:14:56;8.15;;;4.88;;
43771;SDS011;59066;54.782;32.024;2023-07-13T15:17:26;6.00;;;4.22;;
43771;SDS011;59066;54.782;32.024;2023-07-13T15:20:00;11.50;;;5.18;;
43771;SDS011;59066;54.782;32.024;2023-07-13T15:22:28;6.95;;;4.72;;
43771;SDS011;59066;54.782;32.024;2023-07-13T15:24:56;6.72;;;4.75;;
43771;SDS011;59066;54.782;32.024;2023-07-13T15:27:26;5.95;;;4.45;;
43771;SDS011;59066;54.782;32.024;2023-07-13T15:29:53;9.00;;;4.95;;
43771;SDS011;59066;54.782;32.024;2023-07-13T15:32:21;5.45;;;4.47;;
43771;SDS011;59066;54.782;32.024;2023-07-13T15:34:50;7.63;;;4.85;;
43771;SDS011;59066;54.782;32.024;2023-07-13T15:37:17;7.03;;;4.60;;
43771;SDS011;59066;54.782;32.024;2023-07-13T15:39:47;5.50;;;4.75;;
43771;SDS011;59066;54.782;32.024;2023-07-13T15:42:15;7.32;;;5.15;;
43771;SDS011;59066;54.782;32.024;2023-07-13T15:44:44;7.85;;;5.90;;